sensor_id;sensor_type;location;lat;lon;timestamp;temperature;humidity
75387;DHT22;63966;47.914;22.266;2023-03-14T00:02:04;4.07;65.38
75387;DHT22;63966;47.914;22.266;2023-03-14T00:05:08;4.10;65.42
75387;DHT22;63966;47.914;22.266;2023-03-14T00:08:12;4.10;65.42
75387;DHT22;63966;47.914;22.266;2023-03-14T00:11:19;4.13;65.12
75387;DHT22;63966;47.914;22.266;2023-03-14T00:14:23;4.07;65.45
75387;DHT22;63966;47.914;22.266;2023-03-14T00:17:27;4.17;64.87
75387;DHT22;63966;47.914;22.266;2023-03-14T00:20:32;4.03;65.32
75387;DHT22;63966;47.914;22.266;2023-03-14T00:23:37;4.21;64.81
75387;DHT22;63966;47.914;22.266;2023-03-14T00:26:40;4.21;64.58
75387;DHT22;63966;47.914;22.266;2023-03-14T00:29:44;4.04;65.12
75387;DHT22;63966;47.914;22.266;2023-03-14T00:32:47;4.00;65.16
75387;DHT22;63966;47.914;22.266;2023-03-14T00:36:05;4.03;65.09
75387;DHT22;63966;47.914;22.266;2023-03-14T00:39:09;3.98;65.12
75387;DHT22;63966;47.914;22.266;2023-03-14T00:42:13;4.00;64.96
75387;DHT22;63966;47.914;22.266;2023-03-14T00:45:16;4.13;64.55
75387;DHT22;63966;47.914;22.266;2023-03-14T00:48:21;4.16;64.33
75387;DHT22;63966;47.914;22.266;2023-03-14T00:51:24;4.20;64.19
75387;DHT22;63966;47.914;22.266;2023-03-14T00:54:28;4.16;64.41
75387;DHT22;63966;47.914;22.266;2023-03-14T00:57:31;4.18;64.18
75387;DHT22;63966;47.914;22.266;2023-03-14T01:00:38;4.14;64.44
75387;DHT22;63966;47.914;22.266;2023-03-14T01:03:42;4.13;64.30
75387;DHT22;63966;47.914;22.266;2023-03-14T01:06:46;4.10;64.32
75387;DHT22;63966;47.914;22.266;2023-03-14T01:09:52;4.17;64.15
75387;DHT22;63966;47.914;22.266;2023-03-14T01:12:56;4.21;64.00
75387;DHT22;63966;47.914;22.266;2023-03-14T01:16:07;4.17;64.37
75387;DHT22;63966;47.914;22.266;2023-03-14T01:19:12;4.16;64.17
75387;DHT22;63966;47.914;22.266;2023-03-14T01:22:16;4.10;64.43
75387;DHT22;63966;47.914;22.266;2023-03-14T01:25:19;4.21;64.23
75387;DHT22;63966;47.914;22.266;2023-03-14T01:28:23;4.00;65.06
75387;DHT22;63966;47.914;22.266;2023-03-14T01:31:28;4.18;64.34
75387;DHT22;63966;47.914;22.266;2023-03-14T01:34:31;3.94;65.15
75387;DHT22;63966;47.914;22.266;2023-03-14T01:37:35;3.86;65.56
75387;DHT22;63966;47.914;22.266;2023-03-14T01:40:44;4.03;65.01
75387;DHT22;63966;47.914;22.266;2023-03-14T01:43:49;3.94;65.26
75387;DHT22;63966;47.914;22.266;2023-03-14T01:46:53;3.93;65.38
75387;DHT22;63966;47.914;22.266;2023-03-14T01:49:59;3.80;65.83
75387;DHT22;63966;47.914;22.266;2023-03-14T01:53:04;3.73;65.91
75387;DHT22;63966;47.914;22.266;2023-03-14T01:56:09;3.82;65.54
75387;DHT22;63966;47.914;22.266;2023-03-14T01:59:14;3.96;64.96
75387;DHT22;63966;47.914;22.266;2023-03-14T02:02:19;3.79;65.47
75387;DHT22;63966;47.914;22.266;2023-03-14T02:05:30;3.68;65.85
75387;DHT22;63966;47.914;22.266;2023-03-14T02:08:44;3.63;65.99
75387;DHT22;63966;47.914;22.266;2023-03-14T02:11:56;3.55;66.12
75387;DHT22;63966;47.914;22.266;2023-03-14T02:15:23;3.60;65.95
75387;DHT22;63966;47.914;22.266;2023-03-14T02:18:41;3.51;66.35
75387;DHT22;63966;47.914;22.266;2023-03-14T02:22:13;3.70;65.56
75387;DHT22;63966;47.914;22.266;2023-03-14T02:26:03;3.60;65.75
75387;DHT22;63966;47.914;22.266;2023-03-14T02:29:09;3.56;65.90
75387;DHT22;63966;47.914;22.266;2023-03-14T02:32:13;3.41;66.45
75387;DHT22;63966;47.914;22.266;2023-03-14T02:35:27;3.46;66.37
75387;DHT22;63966;47.914;22.266;2023-03-14T02:38:42;3.59;65.78
75387;DHT22;63966;47.914;22.266;2023-03-14T02:41:49;3.38;66.53
75387;DHT22;63966;47.914;22.266;2023-03-14T02:44:59;3.41;66.39
75387;DHT22;63966;47.914;22.266;2023-03-14T02:48:10;3.39;66.56
75387;DHT22;63966;47.914;22.266;2023-03-14T02:51:15;3.48;66.46
75387;DHT22;63966;47.914;22.266;2023-03-14T02:54:22;3.42;66.53
75387;DHT22;63966;47.914;22.266;2023-03-14T02:57:26;3.35;66.91
75387;DHT22;63966;47.914;22.266;2023-03-14T03:00:32;3.46;66.73
75387;DHT22;63966;47.914;22.266;2023-03-14T03:03:38;3.59;66.33
75387;DHT22;63966;47.914;22.266;2023-03-14T03:06:41;3.31;67.08
75387;DHT22;63966;47.914;22.266;2023-03-14T03:09:45;3.27;67.32
75387;DHT22;63966;47.914;22.266;2023-03-14T03:12:50;3.39;67.18
75387;DHT22;63966;47.914;22.266;2023-03-14T03:15:57;3.63;66.23
75387;DHT22;63966;47.914;22.266;2023-03-14T03:19:01;3.73;65.82
75387;DHT22;63966;47.914;22.266;2023-03-14T03:22:05;3.56;66.61
75387;DHT22;63966;47.914;22.266;2023-03-14T03:25:09;3.42;67.34
75387;DHT22;63966;47.914;22.266;2023-03-14T03:28:12;3.46;67.52
75387;DHT22;63966;47.914;22.266;2023-03-14T03:31:16;3.72;66.60
75387;DHT22;63966;47.914;22.266;2023-03-14T03:34:20;3.75;66.49
75387;DHT22;63966;47.914;22.266;2023-03-14T03:37:26;3.82;66.32
75387;DHT22;63966;47.914;22.266;2023-03-14T03:40:30;3.90;65.75
75387;DHT22;63966;47.914;22.266;2023-03-14T03:43:34;3.76;66.41
75387;DHT22;63966;47.914;22.266;2023-03-14T03:46:39;3.72;66.46
75387;DHT22;63966;47.914;22.266;2023-03-14T03:49:44;3.76;66.47
75387;DHT22;63966;47.914;22.266;2023-03-14T03:52:47;3.75;66.30
75387;DHT22;63966;47.914;22.266;2023-03-14T03:55:51;3.82;66.13
75387;DHT22;63966;47.914;22.266;2023-03-14T03:58:55;3.87;65.66
75387;DHT22;63966;47.914;22.266;2023-03-14T04:02:00;3.83;65.77
75387;DHT22;63966;47.914;22.266;2023-03-14T04:05:04;3.80;65.99
75387;DHT22;63966;47.914;22.266;2023-03-14T04:08:08;3.91;65.20
75387;DHT22;63966;47.914;22.266;2023-03-14T04:11:13;4.07;64.49
75387;DHT22;63966;47.914;22.266;2023-03-14T04:14:44;4.01;64.84
75387;DHT22;63966;47.914;22.266;2023-03-14T04:17:58;4.25;63.61
75387;DHT22;63966;47.914;22.266;2023-03-14T04:21:02;4.33;63.27
75387;DHT22;63966;47.914;22.266;2023-03-14T04:24:17;4.35;63.11
75387;DHT22;63966;47.914;22.266;2023-03-14T04:27:23;4.40;62.81
75387;DHT22;63966;47.914;22.266;2023-03-14T04:30:30;4.48;62.16
75387;DHT22;63966;47.914;22.266;2023-03-14T04:33:37;4.65;61.68
75387;DHT22;63966;47.914;22.266;2023-03-14T04:36:41;4.62;61.74
75387;DHT22;63966;47.914;22.266;2023-03-14T04:39:50;4.68;61.34
75387;DHT22;63966;47.914;22.266;2023-03-14T04:43:07;4.82;60.94
75387;DHT22;63966;47.914;22.266;2023-03-14T04:46:14;4.90;60.54
75387;DHT22;63966;47.914;22.266;2023-03-14T04:49:19;4.93;60.17
75387;DHT22;63966;47.914;22.266;2023-03-14T04:52:22;5.06;59.71
75387;DHT22;63966;47.914;22.266;2023-03-14T04:55:27;5.16;59.50
75387;DHT22;63966;47.914;22.266;2023-03-14T04:58:32;5.28;59.09
75387;DHT22;63966;47.914;22.266;2023-03-14T05:01:37;6.05;57.62
75387;DHT22;63966;47.914;22.266;2023-03-14T05:04:56;6.61;55.34
75387;DHT22;63966;47.914;22.266;2023-03-14T05:08:28;7.06;53.79
75387;DHT22;63966;47.914;22.266;2023-03-14T05:11:48;7.09;53.39
75387;DHT22;63966;47.914;22.266;2023-03-14T05:15:20;6.92;54.17
75387;DHT22;63966;47.914;22.266;2023-03-14T05:18:41;7.38;52.73
75387;DHT22;63966;47.914;22.266;2023-03-14T05:22:08;7.00;53.93
75387;DHT22;63966;47.914;22.266;2023-03-14T05:25:33;7.06;53.81
75387;DHT22;63966;47.914;22.266;2023-03-14T05:28:52;6.77;54.89
75387;DHT22;63966;47.914;22.266;2023-03-14T05:32:04;6.24;55.99
75387;DHT22;63966;47.914;22.266;2023-03-14T05:35:34;6.14;57.01
75387;DHT22;63966;47.914;22.266;2023-03-14T05:38:48;6.40;56.59
75387;DHT22;63966;47.914;22.266;2023-03-14T05:42:15;6.85;55.23
75387;DHT22;63966;47.914;22.266;2023-03-14T05:45:41;6.77;55.43
75387;DHT22;63966;47.914;22.266;2023-03-14T05:49:08;6.93;54.99
75387;DHT22;63966;47.914;22.266;2023-03-14T05:52:24;7.09;54.60
75387;DHT22;63966;47.914;22.266;2023-03-14T05:56:00;7.31;54.59
75387;DHT22;63966;47.914;22.266;2023-03-14T05:59:33;7.46;54.06
75387;DHT22;63966;47.914;22.266;2023-03-14T06:03:02;7.38;54.19
75387;DHT22;63966;47.914;22.266;2023-03-14T06:06:11;7.16;55.07
75387;DHT22;63966;47.914;22.266;2023-03-14T06:09:15;7.20;54.35
75387;DHT22;63966;47.914;22.266;2023-03-14T06:12:19;7.16;54.87
75387;DHT22;63966;47.914;22.266;2023-03-14T06:15:23;7.28;54.68
75387;DHT22;63966;47.914;22.266;2023-03-14T06:18:32;7.34;54.73
75387;DHT22;63966;47.914;22.266;2023-03-14T06:21:36;7.38;54.50
75387;DHT22;63966;47.914;22.266;2023-03-14T06:24:39;7.19;54.88
75387;DHT22;63966;47.914;22.266;2023-03-14T06:27:43;7.15;55.67
75387;DHT22;63966;47.914;22.266;2023-03-14T06:30:48;7.12;55.50
75387;DHT22;63966;47.914;22.266;2023-03-14T06:33:52;7.23;55.47
75387;DHT22;63966;47.914;22.266;2023-03-14T06:36:56;7.28;54.93
75387;DHT22;63966;47.914;22.266;2023-03-14T06:40:00;7.27;56.09
75387;DHT22;63966;47.914;22.266;2023-03-14T06:43:27;7.34;55.70
75387;DHT22;63966;47.914;22.266;2023-03-14T06:46:31;7.37;55.38
75387;DHT22;63966;47.914;22.266;2023-03-14T06:49:35;7.43;55.49
75387;DHT22;63966;47.914;22.266;2023-03-14T06:52:38;7.44;55.61
75387;DHT22;63966;47.914;22.266;2023-03-14T06:55:50;7.42;55.27
75387;DHT22;63966;47.914;22.266;2023-03-14T06:58:55;7.43;55.09
75387;DHT22;63966;47.914;22.266;2023-03-14T07:02:03;7.31;55.69
75387;DHT22;63966;47.914;22.266;2023-03-14T07:05:07;7.48;55.41
75387;DHT22;63966;47.914;22.266;2023-03-14T07:08:11;7.44;55.88
75387;DHT22;63966;47.914;22.266;2023-03-14T07:11:14;7.43;56.23
75387;DHT22;63966;47.914;22.266;2023-03-14T07:14:21;7.67;55.78
75387;DHT22;63966;47.914;22.266;2023-03-14T07:17:25;7.75;54.89
75387;DHT22;63966;47.914;22.266;2023-03-14T07:20:31;7.82;54.82
75387;DHT22;63966;47.914;22.266;2023-03-14T07:23:36;7.79;55.04
75387;DHT22;63966;47.914;22.266;2023-03-14T07:26:40;7.78;55.40
75387;DHT22;63966;47.914;22.266;2023-03-14T07:29:44;7.92;55.06
75387;DHT22;63966;47.914;22.266;2023-03-14T07:32:51;7.82;55.81
75387;DHT22;63966;47.914;22.266;2023-03-14T07:35:58;7.89;55.51
75387;DHT22;63966;47.914;22.266;2023-03-14T07:39:03;7.89;55.31
75387;DHT22;63966;47.914;22.266;2023-03-14T07:42:25;7.94;56.20
75387;DHT22;63966;47.914;22.266;2023-03-14T07:45:48;8.03;55.85
75387;DHT22;63966;47.914;22.266;2023-03-14T07:48:53;8.15;55.49
75387;DHT22;63966;47.914;22.266;2023-03-14T07:51:57;8.12;56.48
75387;DHT22;63966;47.914;22.266;2023-03-14T07:55:01;8.32;55.26
75387;DHT22;63966;47.914;22.266;2023-03-14T07:58:05;8.26;55.06
75387;DHT22;63966;47.914;22.266;2023-03-14T08:01:09;8.19;55.42
75387;DHT22;63966;47.914;22.266;2023-03-14T08:04:16;8.34;55.50
75387;DHT22;63966;47.914;22.266;2023-03-14T08:07:25;8.42;55.67
75387;DHT22;63966;47.914;22.266;2023-03-14T08:10:30;8.51;55.44
75387;DHT22;63966;47.914;22.266;2023-03-14T08:13:34;8.72;55.52
75387;DHT22;63966;47.914;22.266;2023-03-14T08:16:38;8.87;54.67
75387;DHT22;63966;47.914;22.266;2023-03-14T08:19:42;8.99;54.32
75387;DHT22;63966;47.914;22.266;2023-03-14T08:22:45;8.93;54.85
75387;DHT22;63966;47.914;22.266;2023-03-14T08:25:50;9.02;54.32
75387;DHT22;63966;47.914;22.266;2023-03-14T08:28:54;9.12;54.48
75387;DHT22;63966;47.914;22.266;2023-03-14T08:31:57;9.20;53.66
75387;DHT22;63966;47.914;22.266;2023-03-14T08:35:01;9.33;54.01
75387;DHT22;63966;47.914;22.266;2023-03-14T08:38:04;9.43;54.17
75387;DHT22;63966;47.914;22.266;2023-03-14T08:41:08;9.51;54.17
75387;DHT22;63966;47.914;22.266;2023-03-14T08:44:16;9.50;53.84
75387;DHT22;63966;47.914;22.266;2023-03-14T08:47:23;9.47;53.07
75387;DHT22;63966;47.914;22.266;2023-03-14T08:50:27;9.50;53.12
75387;DHT22;63966;47.914;22.266;2023-03-14T08:53:31;9.84;52.95
75387;DHT22;63966;47.914;22.266;2023-03-14T08:56:34;10.32;50.97
75387;DHT22;63966;47.914;22.266;2023-03-14T08:59:40;10.57;52.00
75387;DHT22;63966;47.914;22.266;2023-03-14T09:02:44;10.79;50.26
75387;DHT22;63966;47.914;22.266;2023-03-14T09:05:48;10.91;50.76
75387;DHT22;63966;47.914;22.266;2023-03-14T09:08:51;11.04;50.27
75387;DHT22;63966;47.914;22.266;2023-03-14T09:11:55;11.17;49.12
75387;DHT22;63966;47.914;22.266;2023-03-14T09:14:59;11.36;48.73
75387;DHT22;63966;47.914;22.266;2023-03-14T09:18:03;11.35;48.86
75387;DHT22;63966;47.914;22.266;2023-03-14T09:21:08;11.46;48.76
75387;DHT22;63966;47.914;22.266;2023-03-14T09:24:12;11.87;47.47
75387;DHT22;63966;47.914;22.266;2023-03-14T09:27:15;12.23;46.61
75387;DHT22;63966;47.914;22.266;2023-03-14T09:30:19;12.48;45.89
75387;DHT22;63966;47.914;22.266;2023-03-14T09:33:22;12.56;45.71
75387;DHT22;63966;47.914;22.266;2023-03-14T09:36:25;12.64;44.41
75387;DHT22;63966;47.914;22.266;2023-03-14T09:39:29;12.54;45.06
75387;DHT22;63966;47.914;22.266;2023-03-14T09:42:33;12.65;44.90
75387;DHT22;63966;47.914;22.266;2023-03-14T09:45:40;12.82;44.96
75387;DHT22;63966;47.914;22.266;2023-03-14T09:48:46;12.93;44.06
75387;DHT22;63966;47.914;22.266;2023-03-14T09:51:54;12.97;44.81
75387;DHT22;63966;47.914;22.266;2023-03-14T09:55:06;13.07;44.68
75387;DHT22;63966;47.914;22.266;2023-03-14T09:58:16;13.04;44.69
75387;DHT22;63966;47.914;22.266;2023-03-14T10:01:27;12.97;44.31
75387;DHT22;63966;47.914;22.266;2023-03-14T10:04:34;13.16;44.53
75387;DHT22;63966;47.914;22.266;2023-03-14T10:07:38;13.28;43.74
75387;DHT22;63966;47.914;22.266;2023-03-14T10:10:43;13.23;43.59
75387;DHT22;63966;47.914;22.266;2023-03-14T10:17:12;13.58;43.33
75387;DHT22;63966;47.914;22.266;2023-03-14T10:20:35;13.81;42.61
75387;DHT22;63966;47.914;22.266;2023-03-14T10:23:39;14.06;42.09
75387;DHT22;63966;47.914;22.266;2023-03-14T10:26:43;14.36;41.22
75387;DHT22;63966;47.914;22.266;2023-03-14T10:29:58;14.47;40.24
75387;DHT22;63966;47.914;22.266;2023-03-14T10:33:09;14.63;38.59
75387;DHT22;63966;47.914;22.266;2023-03-14T10:36:20;14.89;38.54
75387;DHT22;63966;47.914;22.266;2023-03-14T10:39:28;14.98;36.67
75387;DHT22;63966;47.914;22.266;2023-03-14T10:42:34;15.33;35.69
75387;DHT22;63966;47.914;22.266;2023-03-14T10:45:43;15.52;34.33
75387;DHT22;63966;47.914;22.266;2023-03-14T10:48:48;15.46;33.37
75387;DHT22;63966;47.914;22.266;2023-03-14T10:51:53;15.43;33.41
75387;DHT22;63966;47.914;22.266;2023-03-14T10:55:08;15.42;32.86
75387;DHT22;63966;47.914;22.266;2023-03-14T10:58:42;15.42;33.55
75387;DHT22;63966;47.914;22.266;2023-03-14T11:01:57;15.54;33.77
75387;DHT22;63966;47.914;22.266;2023-03-14T11:11:54;16.15;33.18
75387;DHT22;63966;47.914;22.266;2023-03-14T11:15:32;15.91;33.48
75387;DHT22;63966;47.914;22.266;2023-03-14T11:22:36;16.24;32.69
75387;DHT22;63966;47.914;22.266;2023-03-14T11:25:50;16.35;32.52
75387;DHT22;63966;47.914;22.266;2023-03-14T11:36:06;16.36;31.84
75387;DHT22;63966;47.914;22.266;2023-03-14T11:39:02;16.53;32.35
75387;DHT22;63966;47.914;22.266;2023-03-14T11:42:12;16.53;32.21
75387;DHT22;63966;47.914;22.266;2023-03-14T11:45:20;16.65;31.71
75387;DHT22;63966;47.914;22.266;2023-03-14T11:48:45;16.77;31.54
75387;DHT22;63966;47.914;22.266;2023-03-14T11:51:59;16.67;32.45
75387;DHT22;63966;47.914;22.266;2023-03-14T11:55:27;16.90;31.69
75387;DHT22;63966;47.914;22.266;2023-03-14T11:58:38;16.99;31.59
75387;DHT22;63966;47.914;22.266;2023-03-14T12:02:03;17.07;32.16
75387;DHT22;63966;47.914;22.266;2023-03-14T12:08:43;17.27;31.81
75387;DHT22;63966;47.914;22.266;2023-03-14T12:11:52;17.31;32.41
75387;DHT22;63966;47.914;22.266;2023-03-14T12:15:01;17.28;31.51
75387;DHT22;63966;47.914;22.266;2023-03-14T12:18:26;17.11;32.46
75387;DHT22;63966;47.914;22.266;2023-03-14T12:21:50;17.04;33.65
75387;DHT22;63966;47.914;22.266;2023-03-14T12:28:22;17.08;32.53
75387;DHT22;63966;47.914;22.266;2023-03-14T12:31:38;17.15;32.35
75387;DHT22;63966;47.914;22.266;2023-03-14T12:34:44;17.35;32.23
75387;DHT22;63966;47.914;22.266;2023-03-14T12:37:51;17.66;33.01
75387;DHT22;63966;47.914;22.266;2023-03-14T12:41:11;17.89;32.50
75387;DHT22;63966;47.914;22.266;2023-03-14T12:50:45;18.13;31.47
75387;DHT22;63966;47.914;22.266;2023-03-14T13:00:39;18.34;32.39
75387;DHT22;63966;47.914;22.266;2023-03-14T13:03:57;18.24;31.74
75387;DHT22;63966;47.914;22.266;2023-03-14T13:10:45;18.28;32.00
75387;DHT22;63966;47.914;22.266;2023-03-14T13:13:56;18.16;32.12
75387;DHT22;63966;47.914;22.266;2023-03-14T13:17:01;17.96;33.13
75387;DHT22;63966;47.914;22.266;2023-03-14T13:20:34;17.97;32.73
75387;DHT22;63966;47.914;22.266;2023-03-14T13:23:39;18.01;32.28
75387;DHT22;63966;47.914;22.266;2023-03-14T13:26:43;18.13;33.01
75387;DHT22;63966;47.914;22.266;2023-03-14T13:29:49;18.13;31.70
75387;DHT22;63966;47.914;22.266;2023-03-14T13:32:54;18.00;31.86
75387;DHT22;63966;47.914;22.266;2023-03-14T13:36:03;18.07;31.40
75387;DHT22;63966;47.914;22.266;2023-03-14T13:39:13;18.06;31.55
75387;DHT22;63966;47.914;22.266;2023-03-14T13:42:18;17.93;32.23
75387;DHT22;63966;47.914;22.266;2023-03-14T13:45:21;17.82;32.35
75387;DHT22;63966;47.914;22.266;2023-03-14T13:48:28;17.71;32.37
75387;DHT22;63966;47.914;22.266;2023-03-14T13:51:33;17.65;31.85
75387;DHT22;63966;47.914;22.266;2023-03-14T13:54:39;17.65;32.13
75387;DHT22;63966;47.914;22.266;2023-03-14T13:57:53;17.73;31.39
75387;DHT22;63966;47.914;22.266;2023-03-14T14:01:15;17.94;31.55
75387;DHT22;63966;47.914;22.266;2023-03-14T14:04:22;18.18;31.50
75387;DHT22;63966;47.914;22.266;2023-03-14T14:07:28;18.26;31.59
75387;DHT22;63966;47.914;22.266;2023-03-14T14:10:36;18.26;32.14
75387;DHT22;63966;47.914;22.266;2023-03-14T14:13:43;18.20;32.92
75387;DHT22;63966;47.914;22.266;2023-03-14T14:16:50;18.16;31.99
75387;DHT22;63966;47.914;22.266;2023-03-14T14:19:58;17.93;31.76
75387;DHT22;63966;47.914;22.266;2023-03-14T14:23:07;17.83;32.17
75387;DHT22;63966;47.914;22.266;2023-03-14T14:26:18;17.62;33.14
75387;DHT22;63966;47.914;22.266;2023-03-14T14:29:27;17.53;32.73
75387;DHT22;63966;47.914;22.266;2023-03-14T14:32:38;17.51;33.11
75387;DHT22;63966;47.914;22.266;2023-03-14T14:35:48;17.65;33.27
75387;DHT22;63966;47.914;22.266;2023-03-14T14:38:58;17.68;33.57
75387;DHT22;63966;47.914;22.266;2023-03-14T14:42:03;17.72;33.59
75387;DHT22;63966;47.914;22.266;2023-03-14T14:45:14;17.82;34.11
75387;DHT22;63966;47.914;22.266;2023-03-14T14:48:25;17.78;33.19
75387;DHT22;63966;47.914;22.266;2023-03-14T14:51:34;17.65;33.41
75387;DHT22;63966;47.914;22.266;2023-03-14T14:54:43;17.56;32.94
75387;DHT22;63966;47.914;22.266;2023-03-14T14:57:54;17.39;33.17
75387;DHT22;63966;47.914;22.266;2023-03-14T15:01:05;17.36;33.58
75387;DHT22;63966;47.914;22.266;2023-03-14T15:04:12;17.20;33.61
75387;DHT22;63966;47.914;22.266;2023-03-14T15:07:17;17.17;32.97
75387;DHT22;63966;47.914;22.266;2023-03-14T15:10:23;17.06;33.04
75387;DHT22;63966;47.914;22.266;2023-03-14T15:13:28;17.02;33.18
75387;DHT22;63966;47.914;22.266;2023-03-14T15:16:32;16.91;33.94
75387;DHT22;63966;47.914;22.266;2023-03-14T15:19:35;16.80;34.16
75387;DHT22;63966;47.914;22.266;2023-03-14T15:22:40;16.73;34.34
75387;DHT22;63966;47.914;22.266;2023-03-14T15:25:44;16.69;34.61
75387;DHT22;63966;47.914;22.266;2023-03-14T15:28:58;16.62;34.85
75387;DHT22;63966;47.914;22.266;2023-03-14T15:32:01;16.49;35.08
75387;DHT22;63966;47.914;22.266;2023-03-14T15:35:05;16.29;35.55
75387;DHT22;63966;47.914;22.266;2023-03-14T15:38:17;16.21;36.19
75387;DHT22;63966;47.914;22.266;2023-03-14T15:41:24;16.12;36.35
75387;DHT22;63966;47.914;22.266;2023-03-14T15:44:28;16.11;36.54
75387;DHT22;63966;47.914;22.266;2023-03-14T15:47:31;16.07;36.19
75387;DHT22;63966;47.914;22.266;2023-03-14T15:50:37;16.02;36.61
75387;DHT22;63966;47.914;22.266;2023-03-14T15:53:42;15.98;36.55
75387;DHT22;63966;47.914;22.266;2023-03-14T15:56:46;15.84;36.92
75387;DHT22;63966;47.914;22.266;2023-03-14T15:59:50;15.77;36.82
75387;DHT22;63966;47.914;22.266;2023-03-14T16:02:53;15.74;37.12
75387;DHT22;63966;47.914;22.266;2023-03-14T16:05:57;15.71;36.95
75387;DHT22;63966;47.914;22.266;2023-03-14T16:09:00;15.70;36.84
75387;DHT22;63966;47.914;22.266;2023-03-14T16:12:04;15.64;36.96
75387;DHT22;63966;47.914;22.266;2023-03-14T16:15:10;15.57;37.17
75387;DHT22;63966;47.914;22.266;2023-03-14T16:18:14;15.53;37.23
75387;DHT22;63966;47.914;22.266;2023-03-14T16:21:24;15.53;36.67
75387;DHT22;63966;47.914;22.266;2023-03-14T16:24:28;15.47;37.54
75387;DHT22;63966;47.914;22.266;2023-03-14T16:27:32;15.42;36.89
75387;DHT22;63966;47.914;22.266;2023-03-14T16:30:35;15.36;37.66
75387;DHT22;63966;47.914;22.266;2023-03-14T16:33:39;15.42;37.66
75387;DHT22;63966;47.914;22.266;2023-03-14T16:36:42;15.43;37.97
75387;DHT22;63966;47.914;22.266;2023-03-14T16:39:47;15.35;37.74
75387;DHT22;63966;47.914;22.266;2023-03-14T16:43:13;15.28;38.10
75387;DHT22;63966;47.914;22.266;2023-03-14T16:46:18;15.25;38.73
75387;DHT22;63966;47.914;22.266;2023-03-14T16:49:27;15.29;38.67
75387;DHT22;63966;47.914;22.266;2023-03-14T16:52:30;15.31;38.70
75387;DHT22;63966;47.914;22.266;2023-03-14T16:55:33;15.25;39.13
75387;DHT22;63966;47.914;22.266;2023-03-14T16:58:38;15.26;38.78
75387;DHT22;63966;47.914;22.266;2023-03-14T17:01:41;15.28;39.30
75387;DHT22;63966;47.914;22.266;2023-03-14T17:04:46;15.13;39.85
75387;DHT22;63966;47.914;22.266;2023-03-14T17:07:50;15.01;40.65
75387;DHT22;63966;47.914;22.266;2023-03-14T17:10:56;14.94;40.93
75387;DHT22;63966;47.914;22.266;2023-03-14T17:14:00;14.92;40.93
75387;DHT22;63966;47.914;22.266;2023-03-14T17:17:04;14.81;41.36
75387;DHT22;63966;47.914;22.266;2023-03-14T17:20:09;14.83;41.22
75387;DHT22;63966;47.914;22.266;2023-03-14T17:23:14;14.81;41.54
75387;DHT22;63966;47.914;22.266;2023-03-14T17:26:18;14.70;41.43
75387;DHT22;63966;47.914;22.266;2023-03-14T17:29:22;14.54;42.60
75387;DHT22;63966;47.914;22.266;2023-03-14T17:32:25;14.38;42.20
75387;DHT22;63966;47.914;22.266;2023-03-14T17:35:29;14.32;42.84
75387;DHT22;63966;47.914;22.266;2023-03-14T17:38:36;14.22;43.17
75387;DHT22;63966;47.914;22.266;2023-03-14T17:41:40;14.30;42.03
75387;DHT22;63966;47.914;22.266;2023-03-14T17:44:43;14.41;42.01
75387;DHT22;63966;47.914;22.266;2023-03-14T17:47:48;14.43;42.40
75387;DHT22;63966;47.914;22.266;2023-03-14T17:50:51;14.43;41.42
75387;DHT22;63966;47.914;22.266;2023-03-14T17:53:56;14.34;41.98
75387;DHT22;63966;47.914;22.266;2023-03-14T17:57:00;14.22;42.23
75387;DHT22;63966;47.914;22.266;2023-03-14T18:00:06;14.23;41.58
75387;DHT22;63966;47.914;22.266;2023-03-14T18:03:15;14.10;41.42
75387;DHT22;63966;47.914;22.266;2023-03-14T18:06:19;14.10;41.44
75387;DHT22;63966;47.914;22.266;2023-03-14T18:09:23;13.99;41.58
75387;DHT22;63966;47.914;22.266;2023-03-14T18:12:27;13.94;42.48
75387;DHT22;63966;47.914;22.266;2023-03-14T18:15:31;13.83;41.17
75387;DHT22;63966;47.914;22.266;2023-03-14T18:18:36;13.86;41.30
75387;DHT22;63966;47.914;22.266;2023-03-14T18:21:40;13.85;40.52
75387;DHT22;63966;47.914;22.266;2023-03-14T18:24:43;13.90;40.45
75387;DHT22;63966;47.914;22.266;2023-03-14T18:27:47;13.81;40.48
75387;DHT22;63966;47.914;22.266;2023-03-14T18:30:51;13.85;40.83
75387;DHT22;63966;47.914;22.266;2023-03-14T18:33:55;13.85;40.43
75387;DHT22;63966;47.914;22.266;2023-03-14T18:37:00;13.78;39.61
75387;DHT22;63966;47.914;22.266;2023-03-14T18:40:04;13.78;40.39
75387;DHT22;63966;47.914;22.266;2023-03-14T18:43:13;13.72;40.43
75387;DHT22;63966;47.914;22.266;2023-03-14T18:46:17;13.67;40.28
75387;DHT22;63966;47.914;22.266;2023-03-14T18:49:20;13.55;40.44
75387;DHT22;63966;47.914;22.266;2023-03-14T18:52:25;13.44;41.30
75387;DHT22;63966;47.914;22.266;2023-03-14T18:55:28;13.40;41.35
75387;DHT22;63966;47.914;22.266;2023-03-14T18:58:33;13.41;41.23
75387;DHT22;63966;47.914;22.266;2023-03-14T19:01:37;13.37;41.41
75387;DHT22;63966;47.914;22.266;2023-03-14T19:04:41;13.34;41.37
75387;DHT22;63966;47.914;22.266;2023-03-14T19:07:46;13.28;41.74
75387;DHT22;63966;47.914;22.266;2023-03-14T19:10:55;13.30;41.71
75387;DHT22;63966;47.914;22.266;2023-03-14T19:14:01;13.30;41.07
75387;DHT22;63966;47.914;22.266;2023-03-14T19:17:06;13.27;41.87
75387;DHT22;63966;47.914;22.266;2023-03-14T19:20:10;13.14;42.13
75387;DHT22;63966;47.914;22.266;2023-03-14T19:23:14;13.03;42.42
75387;DHT22;63966;47.914;22.266;2023-03-14T19:26:18;12.99;42.27
75387;DHT22;63966;47.914;22.266;2023-03-14T19:29:21;13.03;42.99
75387;DHT22;63966;47.914;22.266;2023-03-14T19:32:25;12.88;42.28
75387;DHT22;63966;47.914;22.266;2023-03-14T19:35:29;12.81;42.88
75387;DHT22;63966;47.914;22.266;2023-03-14T19:38:33;12.69;43.31
75387;DHT22;63966;47.914;22.266;2023-03-14T19:41:37;12.59;43.15
75387;DHT22;63966;47.914;22.266;2023-03-14T19:44:41;12.54;44.02
75387;DHT22;63966;47.914;22.266;2023-03-14T19:47:44;12.51;44.14
75387;DHT22;63966;47.914;22.266;2023-03-14T19:50:49;12.46;43.37
75387;DHT22;63966;47.914;22.266;2023-03-14T19:53:53;12.42;44.62
75387;DHT22;63966;47.914;22.266;2023-03-14T19:56:57;12.52;43.60
75387;DHT22;63966;47.914;22.266;2023-03-14T20:00:03;12.56;42.98
75387;DHT22;63966;47.914;22.266;2023-03-14T20:03:16;12.52;43.70
75387;DHT22;63966;47.914;22.266;2023-03-14T20:06:20;12.45;43.60
75387;DHT22;63966;47.914;22.266;2023-03-14T20:09:24;12.34;43.97
75387;DHT22;63966;47.914;22.266;2023-03-14T20:12:32;12.23;44.34
75387;DHT22;63966;47.914;22.266;2023-03-14T20:15:39;12.10;44.77
75387;DHT22;63966;47.914;22.266;2023-03-14T20:18:43;12.01;45.60
75387;DHT22;63966;47.914;22.266;2023-03-14T20:21:47;11.91;45.77